Time;durP1;ratioP1;P1;durP2;ratioP2;P2;SDS_P1;SDS_P2;PMS_P1;PMS_P2;Temp;Humidity;BMP_temperature;BMP_pressure;BME280_temperature;BME280_humidity;BME280_pressure;Samples;Min_cycle;Max_cycle;Signal;HPM_P1;HPM_P2
2022/11/03 00:00:09;;;;;;;2.43;1.10;;;11.80;99.90;;;;;;4990283;28;20257;-88
2022/11/03 00:02:35;;;;;;;4.20;1.27;;;11.80;99.90;;;;;;5026748;28;20219;-86
2022/11/03 00:06:03;;;;;;;4.00;0.70;;;11.80;99.90;;;;;;5010354;28;20215;-87
2022/11/03 00:07:46;;;;;;;5.67;1.10;;;11.80;99.90;;;;;;5027206;28;20226;-88
2022/11/03 00:10:12;;;;;;;7.83;1.43;;;11.70;99.90;;;;;;5010041;28;20237;-87
2022/11/03 00:12:38;;;;;;;3.87;1.63;;;11.70;99.90;;;;;;5028173;28;20568;-87
2022/11/03 00:15:04;;;;;;;5.97;0.80;;;11.70;99.90;;;;;;4995238;28;20214;-87
2022/11/03 00:17:30;;;;;;;3.57;1.00;;;11.70;99.90;;;;;;5026771;28;20244;-87
2022/11/03 00:19:55;;;;;;;3.70;0.60;;;11.70;99.90;;;;;;4993638;28;21214;-88
2022/11/03 00:22:21;;;;;;;1.90;0.50;;;11.70;99.90;;;;;;5013496;28;20237;-87
2022/11/03 00:24:47;;;;;;;4.00;0.90;;;11.70;99.90;;;;;;5010306;28;20182;-88
2022/11/03 00:27:12;;;;;;;0.67;0.37;;;11.70;99.90;;;;;;4989575;28;20254;-87
2022/11/03 00:29:38;;;;;;;2.60;0.80;;;11.70;99.90;;;;;;4993189;28;20222;-86
2022/11/03 00:32:04;;;;;;;5.33;1.27;;;11.70;99.90;;;;;;5008765;28;20647;-87
2022/11/03 00:34:30;;;;;;;3.37;1.90;;;11.60;99.90;;;;;;5010029;28;20219;-87
2022/11/03 00:36:55;;;;;;;4.93;1.70;;;11.60;99.90;;;;;;5009579;28;20274;-86
2022/11/03 00:39:21;;;;;;;2.57;0.83;;;11.60;99.90;;;;;;5010035;28;20218;-89
2022/11/03 00:41:47;;;;;;;14.83;2.13;;;11.60;99.90;;;;;;4993190;28;20287;-89
2022/11/03 00:44:12;;;;;;;1.50;1.03;;;11.60;99.90;;;;;;4993580;28;20338;-87
2022/11/03 00:46:38;;;;;;;2.60;0.63;;;11.60;99.90;;;;;;5025499;28;20726;-86
2022/11/03 00:49:04;;;;;;;4.03;0.70;;;11.60;99.90;;;;;;5009062;28;20272;-88
2022/11/03 00:51:30;;;;;;;0.60;0.60;;;11.60;99.90;;;;;;5027340;28;20205;-86
2022/11/03 00:54:00;;;;;;;1.60;1.07;;;11.60;99.90;;;;;;5009455;28;20219;-90
2022/11/03 00:56:34;;;;;;;2.43;0.93;;;11.70;99.90;;;;;;5009716;28;20234;-87
2022/11/03 00:59:02;;;;;;;5.67;0.77;;;11.70;99.90;;;;;;5013319;28;20671;-87
2022/11/03 01:01:32;;;;;;;4.77;1.50;;;11.70;99.90;;;;;;5025922;28;20746;-87
2022/11/03 01:06:51;;;;;;;0.87;0.77;;;11.70;99.90;;;;;;5011811;28;20194;-87
2022/11/03 01:09:28;;;;;;;25.87;1.80;;;11.70;99.90;;;;;;5009378;28;20210;-87
2022/11/03 01:11:59;;;;;;;0.37;0.37;;;11.70;99.90;;;;;;5013013;28;20671;-87
2022/11/03 01:14:29;;;;;;;7.27;1.87;;;11.60;99.90;;;;;;5024907;28;20214;-87
2022/11/03 01:16:55;;;;;;;8.03;1.57;;;11.60;99.90;;;;;;5008483;28;20231;-86
2022/11/03 01:19:21;;;;;;;7.17;0.80;;;11.60;99.90;;;;;;5014160;28;20229;-88
2022/11/03 01:21:47;;;;;;;1.27;0.73;;;11.50;99.90;;;;;;4997810;28;20280;-88
2022/11/03 01:24:14;;;;;;;1.13;0.93;;;11.60;99.90;;;;;;5010255;28;20222;-87
2022/11/03 01:26:40;;;;;;;9.03;1.23;;;11.50;99.90;;;;;;5009461;28;20253;-88
2022/11/03 01:29:06;;;;;;;1.90;0.77;;;11.50;99.90;;;;;;4998974;28;20256;-88
2022/11/03 01:31:31;;;;;;;3.23;1.47;;;11.50;99.90;;;;;;4992073;28;20757;-87
2022/11/03 01:33:57;;;;;;;2.53;1.00;;;11.50;99.90;;;;;;5008874;28;20195;-88
2022/11/03 01:36:23;;;;;;;6.90;2.53;;;11.50;99.90;;;;;;5009520;28;20222;-87
2022/11/03 01:38:50;;;;;;;5.50;1.77;;;11.50;99.90;;;;;;5008768;28;20698;-88
2022/11/03 01:41:19;;;;;;;4.67;0.87;;;11.50;99.90;;;;;;5008583;28;20217;-89
2022/11/03 01:43:51;;;;;;;1.80;0.80;;;11.60;99.90;;;;;;5008600;28;20214;-88
2022/11/03 01:46:22;;;;;;;2.30;1.10;;;11.60;99.90;;;;;;5026315;28;20313;-87
2022/11/03 01:48:58;;;;;;;6.77;0.90;;;11.50;99.90;;;;;;5022745;28;20265;-87
2022/11/03 01:51:26;;;;;;;0.77;0.77;;;11.60;99.90;;;;;;5013716;28;20218;-87
2022/11/03 01:53:57;;;;;;;3.50;1.13;;;11.60;99.90;;;;;;5020120;28;20654;-87
2022/11/03 01:56:23;;;;;;;2.30;1.43;;;11.60;99.90;;;;;;5022417;28;20229;-88
2022/11/03 01:58:51;;;;;;;2.27;1.63;;;11.60;99.90;;;;;;4995227;28;20227;-88
2022/11/03 02:01:17;;;;;;;3.50;1.00;;;11.60;99.90;;;;;;5010703;28;20219;-87
2022/11/03 02:03:50;;;;;;;1.10;0.50;;;11.50;99.90;;;;;;5021738;28;20191;-87
2022/11/03 02:06:19;;;;;;;1.73;0.67;;;11.60;99.90;;;;;;5010835;28;20222;-88
2022/11/03 02:08:54;;;;;;;2.33;0.77;;;11.60;99.90;;;;;;5020664;28;20300;-87
2022/11/03 02:14:04;;;;;;;0.50;0.50;;;11.60;99.90;;;;;;5021445;28;20225;-88
2022/11/03 02:16:31;;;;;;;3.80;1.33;;;11.60;99.90;;;;;;5011302;28;20227;-87
2022/11/03 02:18:59;;;;;;;3.17;1.80;;;11.60;99.90;;;;;;5010800;28;20183;-87
2022/11/03 02:21:43;;;;;;;1.10;0.93;;;11.50;99.90;;;;;;5011043;28;20199;-87
2022/11/03 02:24:29;;;;;;;1.77;1.10;;;11.50;99.90;;;;;;5020476;28;20577;-88
2022/11/03 02:26:56;;;;;;;2.63;0.87;;;11.50;99.90;;;;;;5009981;28;20257;-87
2022/11/03 02:29:22;;;;;;;0.57;0.57;;;11.50;99.90;;;;;;5009722;28;20247;-87
2022/11/03 02:31:56;;;;;;;3.93;1.03;;;11.50;99.90;;;;;;5019047;28;20243;-86
2022/11/03 02:34:48;;;;;;;1.90;0.83;;;11.50;99.90;;;;;;5020544;28;20711;-89
2022/11/03 02:37:19;;;;;;;3.20;1.43;;;11.50;99.90;;;;;;5019943;28;20261;-88
2022/11/03 02:40:03;;;;;;;6.47;0.63;;;11.50;99.90;;;;;;5010289;28;20210;-87
2022/11/03 02:42:30;;;;;;;0.87;0.80;;;11.50;99.90;;;;;;5020012;28;20301;-87
2022/11/03 02:45:01;;;;;;;0.90;0.90;;;11.50;99.90;;;;;;4994188;28;20223;-87
2022/11/03 02:47:29;;;;;;;2.43;1.57;;;11.50;99.90;;;;;;5020506;28;20511;-89
2022/11/03 02:49:55;;;;;;;2.73;1.17;;;11.50;99.90;;;;;;5009278;28;20242;-89
2022/11/03 02:52:36;;;;;;;2.23;1.13;;;11.50;99.90;;;;;;5019245;28;20266;-85
2022/11/03 02:55:08;;;;;;;1.53;0.83;;;11.60;99.90;;;;;;5017752;28;20219;-89
2022/11/03 02:57:37;;;;;;;0.80;0.77;;;11.60;99.90;;;;;;5008394;28;20182;-87
2022/11/03 03:00:05;;;;;;;1.40;0.80;;;11.60;99.90;;;;;;5008581;28;20504;-86
2022/11/03 03:02:44;;;;;;;2.07;0.93;;;11.70;99.90;;;;;;5007265;28;20226;-89
2022/11/03 03:05:13;;;;;;;1.50;1.10;;;11.70;99.90;;;;;;5020114;28;20241;-89
2022/11/03 03:07:46;;;;;;;8.27;1.10;;;11.80;99.90;;;;;;5019421;28;20235;-87
2022/11/03 03:10:23;;;;;;;2.60;1.57;;;11.80;99.90;;;;;;5009810;28;20222;-88
2022/11/03 03:12:53;;;;;;;7.03;0.87;;;11.90;99.90;;;;;;5016569;28;20194;-87
2022/11/03 03:15:34;;;;;;;2.93;0.70;;;11.90;99.90;;;;;;5007994;28;20198;-86
2022/11/03 03:18:23;;;;;;;8.80;1.03;;;12.00;99.90;;;;;;5006927;28;20226;-87
2022/11/03 03:20:57;;;;;;;1.13;0.63;;;12.00;99.90;;;;;;5018521;28;20774;-88
2022/11/03 03:23:26;;;;;;;9.47;1.87;;;12.00;99.90;;;;;;5007075;28;20739;-88
2022/11/03 03:26:16;;;;;;;2.77;1.23;;;12.00;99.90;;;;;;5005685;28;20288;-89
2022/11/03 03:28:50;;;;;;;1.33;0.87;;;12.10;99.90;;;;;;5017016;28;20844;-89
2022/11/03 03:31:18;;;;;;;0.93;0.70;;;12.00;99.90;;;;;;5005864;28;20254;-89
2022/11/03 03:33:46;;;;;;;14.03;1.90;;;12.00;99.90;;;;;;5021959;28;20182;-88
2022/11/03 03:36:15;;;;;;;3.17;1.10;;;12.00;99.90;;;;;;5006362;28;20245;-87
2022/11/03 03:38:47;;;;;;;2.07;1.70;;;12.00;99.90;;;;;;5006522;28;20223;-89
2022/11/03 03:41:20;;;;;;;11.13;2.57;;;12.10;99.90;;;;;;5016236;28;20220;-88
2022/11/03 03:43:52;;;;;;;1.80;1.20;;;12.00;99.90;;;;;;5014655;28;20566;-88
2022/11/03 03:46:22;;;;;;;5.70;1.93;;;12.10;99.90;;;;;;5015712;28;20751;-87
2022/11/03 03:48:48;;;;;;;0.77;0.77;;;12.10;99.90;;;;;;5006553;28;20708;-87
2022/11/03 03:51:15;;;;;;;6.07;1.03;;;12.10;99.90;;;;;;5017227;28;20213;-87
2022/11/03 03:53:41;;;;;;;0.50;0.50;;;12.10;99.90;;;;;;5017140;28;20214;-89
2022/11/03 03:56:07;;;;;;;1.10;0.50;;;12.10;99.90;;;;;;5006234;28;20567;-87
2022/11/03 03:58:33;;;;;;;5.47;1.90;;;12.20;99.90;;;;;;4990082;28;20337;-88
2022/11/03 04:00:58;;;;;;;4.50;1.40;;;12.10;99.90;;;;;;4988447;28;20282;-87
2022/11/03 04:03:25;;;;;;;2.63;0.83;;;12.10;99.90;;;;;;5015262;28;20555;-88
2022/11/03 04:05:53;;;;;;;5.73;1.20;;;12.10;99.90;;;;;;5007979;28;20771;-88
2022/11/03 04:08:19;;;;;;;2.00;1.70;;;12.10;99.90;;;;;;4991316;28;20219;-88
2022/11/03 04:22:15;;;;;;;1.67;1.27;;;12.10;99.90;;;;;;5014673;28;20254;-88
2022/11/03 04:24:30;;;;;;;1.23;0.90;;;12.00;99.90;;;;;;5008003;28;20206;-86
2022/11/03 04:27:12;;;;;;;12.23;1.13;;;12.00;99.90;;;;;;5005445;28;20719;-87
2022/11/03 04:29:38;;;;;;;4.03;0.63;;;11.90;99.90;;;;;;5021149;28;20214;-88
2022/11/03 04:32:14;;;;;;;4.80;1.33;;;11.80;99.90;;;;;;5004853;28;20206;-87
2022/11/03 04:34:40;;;;;;;1.43;1.33;;;11.70;99.90;;;;;;5005027;28;20537;-88
2022/11/03 04:37:10;;;;;;;10.13;1.90;;;11.60;99.90;;;;;;5006120;28;20215;-90
2022/11/03 04:39:36;;;;;;;5.93;0.60;;;11.60;99.90;;;;;;5005983;28;20187;-89
2022/11/03 04:42:13;;;;;;;3.07;0.80;;;11.50;99.90;;;;;;4988121;28;20214;-89
2022/11/03 04:44:38;;;;;;;8.43;2.10;;;11.50;99.90;;;;;;5013096;28;20215;-87
2022/11/03 04:47:10;;;;;;;7.33;1.43;;;11.40;99.90;;;;;;4988294;28;20227;-89
2022/11/03 04:49:36;;;;;;;1.73;1.23;;;11.30;99.90;;;;;;5023463;28;20707;-89
2022/11/03 04:52:02;;;;;;;6.63;1.37;;;11.30;99.90;;;;;;5009556;28;20225;-89
2022/11/03 04:54:28;;;;;;;1.30;1.20;;;11.30;99.90;;;;;;5010180;28;20191;-87
2022/11/03 04:56:54;;;;;;;2.13;1.80;;;11.30;99.90;;;;;;4992994;28;20272;-88
2022/11/03 04:59:20;;;;;;;0.77;0.70;;;11.20;99.90;;;;;;4991226;28;20218;-89
2022/11/03 05:01:46;;;;;;;1.80;1.13;;;11.20;99.90;;;;;;5015873;28;20777;-88
2022/11/03 05:04:17;;;;;;;1.57;0.90;;;11.10;99.90;;;;;;4992338;28;20591;-88
2022/11/03 05:06:52;;;;;;;0.70;0.37;;;11.10;99.90;;;;;;5027716;28;20191;-89
2022/11/03 05:09:28;;;;;;;1.17;1.07;;;11.00;99.90;;;;;;4997463;28;20619;-89
2022/11/03 05:11:54;;;;;;;1.97;0.77;;;11.00;99.90;;;;;;5026945;28;20234;-91
2022/11/03 05:14:31;;;;;;;0.53;0.50;;;11.00;99.90;;;;;;5009097;28;20218;-90
2022/11/03 05:16:57;;;;;;;3.83;1.80;;;10.90;99.90;;;;;;5023060;28;20616;-90
2022/11/03 05:19:32;;;;;;;5.03;1.53;;;10.90;99.90;;;;;;5009634;28;20215;-89
2022/11/03 05:22:00;;;;;;;1.63;1.53;;;10.80;99.90;;;;;;5026028;28;20221;-89
2022/11/03 05:24:26;;;;;;;2.87;0.80;;;10.80;99.90;;;;;;5024646;28;20198;-90
2022/11/03 05:26:54;;;;;;;2.10;0.87;;;10.80;99.90;;;;;;5026605;28;20222;-90
2022/11/03 05:29:24;;;;;;;1.80;1.50;;;10.80;99.90;;;;;;4983073;28;20680;-90
2022/11/03 05:31:52;;;;;;;5.00;1.67;;;10.90;99.90;;;;;;5024281;28;20218;-87
2022/11/03 05:34:24;;;;;;;2.40;0.70;;;10.90;99.90;;;;;;4995385;28;20221;-88
2022/11/03 05:36:49;;;;;;;0.53;0.50;;;10.90;99.90;;;;;;5026545;28;20211;-89
2022/11/03 05:39:33;;;;;;;2.20;0.97;;;11.00;99.90;;;;;;4993351;28;20206;-87
2022/11/03 05:42:00;;;;;;;3.53;1.67;;;11.00;99.90;;;;;;5009033;28;21103;-87
2022/11/03 05:44:35;;;;;;;0.90;0.90;;;11.00;99.90;;;;;;5008583;28;20253;-89
2022/11/03 05:47:16;;;;;;;0.70;0.70;;;11.00;99.90;;;;;;5025261;28;20296;-88
2022/11/03 05:49:41;;;;;;;1.33;1.00;;;11.00;99.90;;;;;;5010588;28;20748;-89
2022/11/03 05:52:21;;;;;;;4.87;1.20;;;10.90;99.90;;;;;;5007429;28;20222;-90
2022/11/03 05:54:47;;;;;;;5.30;1.00;;;10.90;99.90;;;;;;5014370;28;20186;-89
2022/11/03 05:57:15;;;;;;;17.93;2.30;;;10.90;99.90;;;;;;5016164;28;20238;-90
2022/11/03 05:59:44;;;;;;;1.03;0.87;;;10.90;99.90;;;;;;5016652;28;20238;-88
2022/11/03 06:02:22;;;;;;;2.03;1.87;;;10.80;99.90;;;;;;5024598;28;20230;-89
2022/11/03 06:04:48;;;;;;;3.77;1.33;;;10.80;99.90;;;;;;5017013;28;20694;-89
2022/11/03 06:07:28;;;;;;;1.33;1.13;;;10.80;99.90;;;;;;5016484;28;20305;-89
2022/11/03 06:09:54;;;;;;;3.70;1.03;;;10.80;99.90;;;;;;5015574;28;20186;-90
2022/11/03 06:12:21;;;;;;;2.53;1.67;;;10.90;99.90;;;;;;5033585;28;20274;-89
2022/11/03 06:14:47;;;;;;;1.47;0.90;;;10.90;99.90;;;;;;5017875;28;20737;-90
2022/11/03 06:17:24;;;;;;;3.70;1.00;;;10.90;99.90;;;;;;5017008;28;20284;-90
2022/11/03 06:19:56;;;;;;;5.87;1.50;;;10.90;99.90;;;;;;5021767;28;20211;-88
2022/11/03 06:22:29;;;;;;;7.20;1.33;;;10.90;99.90;;;;;;5016896;28;20750;-88
2022/11/03 06:24:58;;;;;;;0.70;0.70;;;11.00;99.90;;;;;;5015112;28;20179;-89
2022/11/03 06:27:28;;;;;;;1.20;1.00;;;11.00;99.90;;;;;;5029189;28;20191;-88
2022/11/03 06:30:05;;;;;;;6.00;0.83;;;11.00;99.90;;;;;;5015442;28;20301;-91
2022/11/03 06:32:32;;;;;;;0.87;0.80;;;11.00;99.90;;;;;;5032001;28;20280;-90
2022/11/03 06:34:58;;;;;;;2.40;1.10;;;11.00;99.90;;;;;;5017387;28;20237;-88
2022/11/03 06:37:33;;;;;;;1.60;1.27;;;11.10;99.90;;;;;;5031926;28;20238;-89
2022/11/03 06:40:10;;;;;;;0.90;0.90;;;11.10;99.90;;;;;;5009298;28;20187;-89
2022/11/03 06:42:40;;;;;;;1.07;0.90;;;11.10;99.90;;;;;;5035260;28;20240;-87
2022/11/03 06:45:21;;;;;;;3.73;1.00;;;11.10;99.90;;;;;;5020281;28;20252;-89
2022/11/03 06:47:47;;;;;;;1.10;0.93;;;11.10;99.90;;;;;;5018554;28;20307;-90
2022/11/03 06:50:31;;;;;;;3.07;1.63;;;11.10;99.90;;;;;;5004998;28;20602;-90
2022/11/03 06:53:00;;;;;;;2.70;1.00;;;11.10;99.90;;;;;;5009650;28;20284;-89
2022/11/03 06:55:29;;;;;;;1.20;0.80;;;11.10;99.90;;;;;;5009495;28;20242;-93
2022/11/03 06:58:01;;;;;;;4.30;2.63;;;11.10;99.90;;;;;;5000554;28;20193;-91
2022/11/03 07:00:29;;;;;;;6.83;1.73;;;11.10;99.90;;;;;;5010198;28;20349;-89
2022/11/03 07:03:10;;;;;;;8.33;2.03;;;11.20;99.90;;;;;;4993119;28;20223;-90
2022/11/03 07:05:36;;;;;;;2.60;0.83;;;11.20;99.90;;;;;;5026014;28;20683;-91
2022/11/03 07:08:13;;;;;;;0.60;0.60;;;11.20;99.90;;;;;;5019750;28;20676;-90
2022/11/03 07:10:39;;;;;;;2.20;1.40;;;11.20;99.90;;;;;;5009061;28;20818;-92
2022/11/03 07:13:22;;;;;;;1.97;1.33;;;11.30;99.90;;;;;;4991843;28;20278;-90
2022/11/03 07:15:48;;;;;;;3.13;0.87;;;11.30;99.90;;;;;;5007354;28;20478;-88
2022/11/03 07:18:17;;;;;;;2.90;1.30;;;11.30;99.90;;;;;;4991637;28;20187;-91
2022/11/03 07:20:46;;;;;;;3.80;1.50;;;11.30;99.90;;;;;;5020107;28;20241;-90
2022/11/03 07:23:17;;;;;;;5.53;0.83;;;11.30;99.90;;;;;;5007835;28;20211;-91
2022/11/03 07:25:47;;;;;;;1.00;0.90;;;11.30;99.90;;;;;;5024694;28;20238;-90
2022/11/03 07:28:14;;;;;;;1.63;1.03;;;11.30;99.90;;;;;;5007875;28;20261;-89
2022/11/03 07:30:39;;;;;;;0.80;0.73;;;11.30;99.90;;;;;;5016160;28;20206;-90
2022/11/03 07:33:16;;;;;;;7.73;1.30;;;11.30;99.90;;;;;;5007426;28;20223;-90
2022/11/03 07:35:43;;;;;;;2.03;1.83;;;11.40;99.90;;;;;;5018166;28;20551;-91
2022/11/03 07:38:16;;;;;;;3.53;1.07;;;11.40;99.90;;;;;;4991992;28;20234;-91
2022/11/03 07:40:42;;;;;;;1.33;0.53;;;11.40;99.90;;;;;;5009320;28;20218;-91
2022/11/03 07:43:33;;;;;;;0.83;0.70;;;11.50;99.90;;;;;;5008876;28;20222;-91
2022/11/03 07:46:01;;;;;;;3.30;1.30;;;11.50;99.90;;;;;;5006849;28;20175;-91
2022/11/03 07:48:48;;;;;;;1.00;1.00;;;11.50;99.90;;;;;;5009322;28;20202;-89
2022/11/03 07:51:43;;;;;;;3.47;0.90;;;11.50;99.90;;;;;;5010141;28;20307;-90
2022/11/03 07:54:20;;;;;;;3.97;1.47;;;11.60;99.90;;;;;;4993544;28;20302;-90
2022/11/03 07:56:54;;;;;;;3.90;1.53;;;11.60;99.90;;;;;;5010295;28;20480;-88
2022/11/03 07:59:43;;;;;;;3.67;1.23;;;11.60;99.90;;;;;;5028902;28;20230;-91
2022/11/03 08:02:30;;;;;;;3.93;1.20;;;11.60;99.90;;;;;;5012166;28;20667;-89
2022/11/03 08:04:57;;;;;;;4.90;1.10;;;11.70;99.90;;;;;;5010153;28;20222;-86
2022/11/03 08:07:30;;;;;;;0.60;0.50;;;11.70;99.90;;;;;;4992043;28;20225;-91
2022/11/03 08:09:56;;;;;;;11.13;1.83;;;11.70;99.90;;;;;;5026633;28;20187;-91
2022/11/03 08:12:22;;;;;;;1.97;1.23;;;11.70;99.90;;;;;;5012045;28;20187;-90
2022/11/03 08:14:48;;;;;;;4.23;1.77;;;11.80;99.90;;;;;;4982542;28;20222;-91
2022/11/03 08:17:14;;;;;;;1.27;1.17;;;11.80;99.90;;;;;;5004286;28;20284;-92
2022/11/03 08:19:40;;;;;;;2.37;0.93;;;11.90;99.90;;;;;;5014332;28;20237;-91
2022/11/03 08:22:06;;;;;;;1.47;0.97;;;11.90;99.90;;;;;;4992876;28;20781;-92
2022/11/03 08:24:31;;;;;;;7.40;1.50;;;12.10;99.90;;;;;;5011117;28;20202;-93
2022/11/03 08:26:57;;;;;;;1.10;1.00;;;12.10;99.90;;;;;;5009448;28;20381;-86
2022/11/03 08:29:26;;;;;;;1.07;0.70;;;12.20;99.90;;;;;;5009373;28;20636;-91
2022/11/03 08:31:55;;;;;;;1.00;1.00;;;12.20;99.90;;;;;;5010160;28;20349;-90
2022/11/03 08:34:21;;;;;;;2.63;0.97;;;12.20;99.90;;;;;;5027412;28;20229;-90
2022/11/03 08:36:47;;;;;;;3.70;1.40;;;12.30;99.90;;;;;;5023424;28;20219;-92
2022/11/03 08:39:12;;;;;;;1.03;1.00;;;12.40;99.90;;;;;;5011470;28;20229;-91
2022/11/03 08:41:38;;;;;;;1.53;0.77;;;12.50;99.90;;;;;;4993294;28;20230;-90
2022/11/03 08:44:04;;;;;;;7.40;1.73;;;12.50;99.90;;;;;;5007060;28;20218;-92
2022/11/03 08:46:31;;;;;;;1.20;1.20;;;12.60;99.90;;;;;;5026418;28;20245;-91
2022/11/03 08:48:57;;;;;;;1.33;1.20;;;12.70;99.90;;;;;;4992646;28;20293;-90
2022/11/03 08:51:23;;;;;;;2.13;1.40;;;12.70;99.90;;;;;;4993208;28;20327;-93
2022/11/03 08:53:52;;;;;;;4.57;1.33;;;12.80;99.90;;;;;;5010583;28;20230;-93
2022/11/03 08:56:19;;;;;;;1.60;0.90;;;12.80;99.90;;;;;;5026914;28;20353;-91
2022/11/03 08:58:45;;;;;;;3.10;1.20;;;12.80;99.90;;;;;;4990190;28;20227;-91
2022/11/03 09:01:11;;;;;;;2.30;1.97;;;13.00;99.90;;;;;;5007093;28;20223;-92
2022/11/03 09:03:38;;;;;;;3.13;1.33;;;13.00;99.90;;;;;;5027254;28;20193;-94
2022/11/03 09:06:04;;;;;;;1.20;1.10;;;13.10;99.90;;;;;;5011022;28;20219;-91
2022/11/03 09:08:30;;;;;;;2.10;1.17;;;13.10;99.90;;;;;;4992857;28;20276;-92
2022/11/03 09:10:56;;;;;;;1.47;1.37;;;13.10;99.90;;;;;;5008957;28;20214;-90
2022/11/03 09:13:21;;;;;;;1.07;0.57;;;13.10;99.90;;;;;;5025768;28;20614;-90
2022/11/03 09:15:47;;;;;;;3.13;0.93;;;13.10;99.90;;;;;;5009581;28;20738;-90
2022/11/03 09:18:13;;;;;;;0.80;0.67;;;13.10;99.90;;;;;;5009567;28;20253;-91
2022/11/03 09:20:39;;;;;;;5.13;0.87;;;13.10;99.90;;;;;;5025929;28;20215;-90
2022/11/03 09:23:04;;;;;;;1.40;1.30;;;13.20;99.90;;;;;;4994364;28;20234;-89
2022/11/03 09:25:30;;;;;;;12.17;1.90;;;13.20;99.90;;;;;;4992532;28;20704;-92
2022/11/03 09:27:56;;;;;;;4.00;1.10;;;13.20;99.90;;;;;;5008111;28;20272;-90
2022/11/03 09:30:21;;;;;;;2.70;1.20;;;13.20;99.90;;;;;;4993475;28;20194;-90
2022/11/03 09:32:47;;;;;;;7.87;1.33;;;13.20;99.90;;;;;;5008659;28;20777;-90
2022/11/03 09:35:13;;;;;;;1.40;0.93;;;13.20;99.90;;;;;;4992583;28;20206;-92
2022/11/03 09:37:39;;;;;;;2.70;2.23;;;13.20;99.90;;;;;;4993565;28;20588;-91
2022/11/03 09:40:06;;;;;;;5.90;3.00;;;13.20;99.90;;;;;;5012350;28;20186;-91
2022/11/03 09:42:34;;;;;;;1.87;0.83;;;13.30;99.90;;;;;;5008817;28;20219;-92
2022/11/03 09:45:00;;;;;;;5.27;0.97;;;13.30;99.90;;;;;;5008551;28;20218;-94
2022/11/03 09:47:38;;;;;;;3.03;0.90;;;13.30;99.90;;;;;;4995948;28;20215;-92
2022/11/03 09:50:05;;;;;;;2.03;1.10;;;13.30;99.90;;;;;;5014381;28;20238;-94
2022/11/03 09:52:33;;;;;;;3.80;1.60;;;13.40;99.90;;;;;;5006232;28;20321;-90
2022/11/03 09:54:58;;;;;;;2.47;1.10;;;13.40;99.90;;;;;;5007392;28;20183;-93
2022/11/03 09:57:28;;;;;;;2.03;0.80;;;13.40;99.90;;;;;;5007146;28;20602;-88
2022/11/03 09:59:54;;;;;;;3.40;1.10;;;13.30;99.90;;;;;;5004769;28;20223;-94
2022/11/03 10:02:29;;;;;;;1.30;0.80;;;13.30;99.90;;;;;;5006661;28;20217;-91
2022/11/03 10:04:57;;;;;;;2.67;2.30;;;13.30;99.90;;;;;;5026432;28;20308;-91
2022/11/03 10:07:25;;;;;;;1.33;1.23;;;13.30;99.90;;;;;;5008082;28;20286;-90
2022/11/03 10:09:52;;;;;;;0.97;0.83;;;13.30;99.90;;;;;;5008745;28;20228;-91
2022/11/03 10:12:20;;;;;;;1.43;1.33;;;13.30;99.90;;;;;;5011250;28;20187;-90
2022/11/03 10:14:46;;;;;;;3.73;1.50;;;13.30;99.90;;;;;;5011156;28;20346;-92
2022/11/03 10:17:18;;;;;;;3.30;0.73;;;13.40;99.90;;;;;;5013276;28;20234;-90
2022/11/03 10:19:48;;;;;;;0.90;0.90;;;13.40;99.90;;;;;;5011443;28;20215;-91
2022/11/03 10:22:14;;;;;;;9.63;1.87;;;13.50;99.90;;;;;;5025111;28;20211;-91
2022/11/03 10:24:40;;;;;;;1.37;0.87;;;13.60;99.90;;;;;;5015541;28;20195;-89
2022/11/03 10:27:20;;;;;;;2.37;1.07;;;13.70;99.90;;;;;;4994953;28;21226;-89
2022/11/03 10:30:06;;;;;;;3.17;1.93;;;13.70;99.90;;;;;;5030253;28;20218;-91
2022/11/03 10:32:33;;;;;;;1.20;1.10;;;13.70;99.90;;;;;;5012712;28;20900;-91
2022/11/03 10:34:59;;;;;;;2.23;1.13;;;13.70;99.90;;;;;;4995515;28;20214;-91
2022/11/03 10:37:27;;;;;;;6.47;1.10;;;13.70;99.90;;;;;;5021919;28;20285;-89
2022/11/03 10:39:55;;;;;;;4.63;1.63;;;13.80;99.90;;;;;;5025745;28;20279;-92
2022/11/03 10:42:25;;;;;;;1.20;1.07;;;13.70;99.90;;;;;;5009893;28;20230;-91
2022/11/03 10:45:16;;;;;;;0.77;0.77;;;13.80;99.90;;;;;;5023839;28;20245;-91
2022/11/03 10:47:42;;;;;;;0.93;0.50;;;13.80;99.90;;;;;;5009870;28;20222;-88
2022/11/03 10:50:22;;;;;;;1.33;1.23;;;13.80;99.90;;;;;;5011023;28;20636;-89
2022/11/03 10:52:48;;;;;;;5.63;0.97;;;13.80;99.90;;;;;;5024155;28;20720;-90
2022/11/03 10:55:15;;;;;;;2.57;1.43;;;13.80;99.90;;;;;;5011321;28;20768;-89
2022/11/03 10:57:41;;;;;;;5.93;2.07;;;13.80;99.90;;;;;;5011862;28;20376;-92
2022/11/03 11:00:13;;;;;;;3.47;1.13;;;13.90;99.90;;;;;;4994710;28;20223;-88
2022/11/03 11:02:41;;;;;;;11.50;1.40;;;13.90;99.90;;;;;;5024045;28;20766;-90
2022/11/03 11:05:21;;;;;;;3.93;1.70;;;13.90;99.90;;;;;;4993285;28;20688;-91
2022/11/03 11:07:51;;;;;;;8.13;2.53;;;13.90;99.90;;;;;;5008745;28;20675;-90
2022/11/03 11:10:21;;;;;;;4.40;0.87;;;14.00;99.90;;;;;;5008427;28;20219;-91
2022/11/03 11:13:17;;;;;;;1.17;1.00;;;14.00;99.90;;;;;;5010413;28;20909;-90
2022/11/03 11:15:47;;;;;;;2.27;1.40;;;14.20;99.90;;;;;;5032317;28;20249;-86
2022/11/03 11:18:28;;;;;;;6.50;1.60;;;14.30;99.90;;;;;;5028491;28;20214;-89
2022/11/03 11:20:54;;;;;;;3.47;1.13;;;14.40;99.90;;;;;;5023734;28;20218;-90
2022/11/03 11:23:32;;;;;;;4.93;1.50;;;14.40;99.90;;;;;;5026768;28;20228;-88
2022/11/03 11:26:13;;;;;;;7.23;1.70;;;14.50;99.90;;;;;;5027311;28;20254;-90
2022/11/03 11:29:02;;;;;;;4.37;1.37;;;14.40;99.90;;;;;;5024165;28;20235;-88
2022/11/03 11:31:32;;;;;;;1.60;0.90;;;14.40;99.90;;;;;;5008823;28;20702;-87
2022/11/03 11:34:17;;;;;;;3.57;1.47;;;14.30;99.90;;;;;;5008745;28;20662;-88
2022/11/03 11:36:52;;;;;;;2.23;1.40;;;14.20;99.90;;;;;;5019473;28;20321;-87
2022/11/03 11:39:27;;;;;;;1.50;1.17;;;14.20;99.90;;;;;;5023296;28;20225;-88
2022/11/03 11:42:18;;;;;;;7.37;1.37;;;14.20;99.90;;;;;;5008839;28;20233;-87
2022/11/03 11:44:45;;;;;;;6.13;1.47;;;14.30;99.90;;;;;;5024735;28;20227;-86
2022/11/03 11:47:25;;;;;;;2.57;0.93;;;14.30;99.90;;;;;;4991854;28;20564;-88
2022/11/03 11:50:09;;;;;;;5.37;1.53;;;14.40;99.90;;;;;;5024114;28;20606;-86
2022/11/03 11:52:43;;;;;;;3.80;1.93;;;14.50;99.90;;;;;;5020703;28;20332;-84
2022/11/03 11:55:24;;;;;;;3.83;1.40;;;14.60;99.90;;;;;;5010175;28;20700;-91
2022/11/03 11:57:50;;;;;;;6.20;1.63;;;14.60;99.90;;;;;;5009028;28;20248;-88
2022/11/03 12:00:25;;;;;;;1.30;1.27;;;14.60;99.90;;;;;;5008467;28;20198;-90
2022/11/03 12:02:52;;;;;;;7.23;1.30;;;14.60;99.90;;;;;;5007531;28;20297;-88
2022/11/03 12:05:21;;;;;;;2.60;1.00;;;14.60;99.90;;;;;;4990418;28;20695;-89
2022/11/03 12:07:47;;;;;;;2.00;1.30;;;14.50;99.90;;;;;;5007978;28;20219;-89
2022/11/03 12:10:19;;;;;;;1.90;1.13;;;14.50;99.90;;;;;;5023429;28;20215;-87
2022/11/03 12:12:45;;;;;;;7.13;1.03;;;14.40;99.90;;;;;;5007852;28;20898;-89
2022/11/03 12:15:52;;;;;;;2.90;1.57;;;14.40;99.90;;;;;;5021188;28;20238;-88
2022/11/03 12:18:42;;;;;;;5.60;1.07;;;14.40;99.90;;;;;;5008631;28;20221;-88
2022/11/03 12:21:10;;;;;;;2.07;1.13;;;14.40;99.90;;;;;;5012652;28;20242;-89
2022/11/03 12:23:46;;;;;;;0.80;0.77;;;14.40;99.90;;;;;;5023497;28;20223;-88
2022/11/03 12:26:24;;;;;;;4.73;0.97;;;14.40;99.90;;;;;;5025161;28;20214;-87
2022/11/03 12:28:50;;;;;;;6.63;1.70;;;14.40;99.90;;;;;;5020289;28;20709;-87
2022/11/03 12:31:16;;;;;;;2.03;1.23;;;14.50;99.90;;;;;;5006953;28;20227;-89
2022/11/03 12:33:41;;;;;;;2.40;1.30;;;14.50;99.90;;;;;;4991738;28;20659;-91
2022/11/03 12:36:08;;;;;;;3.60;1.67;;;14.50;99.90;;;;;;5018150;28;20689;-89
2022/11/03 12:38:34;;;;;;;1.43;1.20;;;14.50;99.90;;;;;;5006989;28;20252;-89
2022/11/03 12:43:44;;;;;;;3.10;1.30;;;14.50;99.90;;;;;;5020174;28;20827;-89
2022/11/03 12:46:11;;;;;;;2.10;1.33;;;14.50;99.90;;;;;;5017633;28;20218;-90
2022/11/03 12:48:42;;;;;;;3.90;1.47;;;14.60;99.90;;;;;;5023927;28;20201;-89
2022/11/03 12:51:12;;;;;;;1.63;1.50;;;14.60;99.90;;;;;;5007300;28;20583;-89
2022/11/03 12:53:39;;;;;;;1.00;0.80;;;14.60;99.90;;;;;;5001974;28;20319;-88
2022/11/03 12:56:06;;;;;;;2.23;1.00;;;14.60;99.90;;;;;;5025688;28;20254;-90
2022/11/03 12:58:32;;;;;;;6.77;1.97;;;14.60;99.90;;;;;;5020210;28;20320;-87
2022/11/03 13:00:58;;;;;;;1.20;1.10;;;14.60;99.90;;;;;;5006412;28;20191;-87
2022/11/03 13:03:24;;;;;;;3.90;1.07;;;14.60;99.90;;;;;;5023337;28;20542;-91
2022/11/03 13:05:50;;;;;;;0.73;0.73;;;14.60;99.90;;;;;;5006542;28;20215;-86
2022/11/03 13:08:15;;;;;;;4.63;1.13;;;14.60;99.90;;;;;;5004786;28;20221;-90
2022/11/03 13:10:41;;;;;;;4.10;1.40;;;14.60;99.90;;;;;;5005896;28;20387;-88
2022/11/03 13:13:07;;;;;;;1.57;1.17;;;14.60;99.90;;;;;;5009350;28;21212;-93
2022/11/03 13:15:32;;;;;;;4.77;0.90;;;14.50;99.90;;;;;;4987440;28;20205;-89
2022/11/03 13:17:58;;;;;;;2.90;1.10;;;14.50;99.90;;;;;;5012579;28;20328;-89
2022/11/03 13:20:24;;;;;;;0.97;0.93;;;14.40;99.90;;;;;;5012125;28;20302;-88